createdAt,value
2022-08-10T00:01:54.081Z,10.13
2022-08-10T00:04:23.865Z,10.08
2022-08-10T00:06:55.120Z,9.98
2022-08-10T00:09:23.569Z,10.02
2022-08-10T00:11:51.236Z,9.97
2022-08-10T00:14:18.330Z,9.97
2022-08-10T00:16:45.279Z,9.97
2022-08-10T00:19:12.307Z,9.99
2022-08-10T00:21:39.656Z,9.96
2022-08-10T00:24:06.701Z,9.94
2022-08-10T00:28:00.704Z,9.89
2022-08-10T00:29:21.083Z,9.85
2022-08-10T00:31:55.957Z,9.84
2022-08-10T00:34:26.965Z,9.83
2022-08-10T00:36:53.782Z,9.76
2022-08-10T00:39:20.826Z,9.72
2022-08-10T00:42:06.700Z,9.70
2022-08-10T00:44:40.311Z,9.62
2022-08-10T00:47:36.008Z,9.60
2022-08-10T00:49:55.283Z,9.58
2022-08-10T00:52:24.667Z,9.56
2022-08-10T00:54:52.954Z,9.53
2022-08-10T00:57:20.424Z,9.52
2022-08-10T00:59:59.571Z,9.49
2022-08-10T01:02:32.115Z,9.45
2022-08-10T01:05:03.372Z,9.41
2022-08-10T01:08:21.468Z,9.40
2022-08-10T01:12:39.594Z,9.35
2022-08-10T01:14:17.512Z,9.36
2022-08-10T01:16:53.796Z,9.29
2022-08-10T01:20:05.294Z,9.27
2022-08-10T01:22:50.544Z,9.24
2022-08-10T01:25:36.090Z,9.23
2022-08-10T01:28:34.854Z,9.18
2022-08-10T01:31:04.715Z,9.18
2022-08-10T01:33:58.811Z,9.12
2022-08-10T01:36:39.973Z,9.11
2022-08-10T01:39:09.338Z,9.11
2022-08-10T01:41:46.935Z,9.10
2022-08-10T01:44:20.025Z,9.08
2022-08-10T01:46:56.941Z,9.08
2022-08-10T01:49:26.991Z,9.09
2022-08-10T01:51:56.368Z,9.05
2022-08-10T01:54:29.741Z,9.04
2022-08-10T01:56:58.396Z,9.01
2022-08-10T01:59:33.007Z,8.98
2022-08-10T02:02:06.418Z,8.97
2022-08-10T02:04:37.548Z,8.94
2022-08-10T02:07:08.612Z,8.91
2022-08-10T02:09:38.493Z,8.88
2022-08-10T02:12:09.147Z,8.87
2022-08-10T02:14:42.027Z,8.84
2022-08-10T02:17:59.904Z,8.83
2022-08-10T02:20:18.324Z,8.81
2022-08-10T02:22:49.489Z,8.79
2022-08-10T02:25:41.810Z,8.74
2022-08-10T02:28:07.330Z,8.68
2022-08-10T02:30:35.204Z,8.68
2022-08-10T02:33:03.789Z,8.64
2022-08-10T02:35:54.376Z,8.63
2022-08-10T02:38:58.900Z,8.61
2022-08-10T02:45:14.004Z,8.60
2022-08-10T02:45:19.603Z,8.57
2022-08-10T02:47:30.334Z,8.56
2022-08-10T02:50:28.019Z,8.53
2022-08-10T02:53:04.273Z,8.53
2022-08-10T02:55:39.942Z,8.54
2022-08-10T02:58:16.708Z,8.53
2022-08-10T03:00:49.861Z,8.54
2022-08-10T03:03:26.487Z,8.51
2022-08-10T03:06:09.451Z,8.49
2022-08-10T03:08:40.953Z,8.47
2022-08-10T03:11:13.808Z,8.45
2022-08-10T03:13:43.215Z,8.46
2022-08-10T03:16:10.839Z,8.45
2022-08-10T03:18:39.102Z,8.42
2022-08-10T03:21:11.716Z,8.44
2022-08-10T03:23:41.542Z,8.46
2022-08-10T03:26:09.915Z,8.43
2022-08-10T03:28:37.328Z,8.43
2022-08-10T03:31:04.734Z,8.45
2022-08-10T03:33:35.594Z,8.43
2022-08-10T03:36:43.890Z,8.45
2022-08-10T03:38:53.662Z,8.44
2022-08-10T03:41:26.875Z,8.47
2022-08-10T03:43:58.554Z,8.48
2022-08-10T03:46:28.230Z,8.49
2022-08-10T03:48:58.071Z,8.52
2022-08-10T03:51:28.917Z,8.54
2022-08-10T03:54:05.459Z,8.62
2022-08-10T03:56:36.735Z,8.71
2022-08-10T03:59:04.486Z,8.80
2022-08-10T04:02:44.654Z,8.87
2022-08-10T04:04:24.117Z,8.96
2022-08-10T04:06:54.746Z,9.08
2022-08-10T04:09:29.820Z,9.15
2022-08-10T04:12:15.518Z,9.23
2022-08-10T04:14:51.144Z,9.32
2022-08-10T04:18:04.906Z,9.48
2022-08-10T04:20:13.792Z,9.67
2022-08-10T04:22:43.444Z,9.86
2022-08-10T04:25:12.666Z,10.01
2022-08-10T04:27:39.968Z,10.12
2022-08-10T04:30:07.516Z,10.31
2022-08-10T04:32:36.467Z,10.65
2022-08-10T04:35:05.668Z,10.98
2022-08-10T04:37:34.823Z,11.28
2022-08-10T04:40:02.413Z,11.58
2022-08-10T04:42:29.427Z,11.96
2022-08-10T04:44:56.269Z,12.30
2022-08-10T04:47:57.404Z,12.66
2022-08-10T04:50:10.481Z,13.10
2022-08-10T04:52:37.803Z,13.59
2022-08-10T04:55:05.250Z,14.10
2022-08-10T04:57:32.174Z,14.52
2022-08-10T04:59:59.346Z,14.95
2022-08-10T05:02:31.205Z,15.28
2022-08-10T05:04:59.447Z,15.70
2022-08-10T05:07:26.586Z,16.19
2022-08-10T05:10:02.311Z,16.72
2022-08-10T05:12:34.521Z,17.24
2022-08-10T05:15:06.610Z,17.55
2022-08-10T05:17:35.466Z,17.79
2022-08-10T05:20:06.957Z,18.17
2022-08-10T05:22:37.206Z,18.77
2022-08-10T05:25:05.761Z,19.21
2022-08-10T05:27:33.980Z,19.71
2022-08-10T05:30:03.118Z,20.32
2022-08-10T05:32:32.484Z,20.93
2022-08-10T05:35:21.309Z,21.56
2022-08-10T05:38:12.263Z,22.21
2022-08-10T05:40:47.492Z,23.05
2022-08-10T05:43:19.190Z,23.79
2022-08-10T05:46:17.571Z,24.41
2022-08-10T05:48:41.732Z,25.15
2022-08-10T05:51:25.630Z,25.58
2022-08-10T05:54:02.116Z,25.91
2022-08-10T05:56:54.727Z,26.46
2022-08-10T06:00:33.320Z,27.00
2022-08-10T06:02:44.965Z,27.47
2022-08-10T06:05:14.806Z,27.98
2022-08-10T06:07:48.802Z,28.42
2022-08-10T06:10:31.257Z,28.83
2022-08-10T06:13:30.616Z,29.01
2022-08-10T06:16:05.604Z,29.38
2022-08-10T06:18:33.136Z,29.75
2022-08-10T06:21:01.041Z,30.18
2022-08-10T06:23:32.365Z,30.47
2022-08-10T06:26:11.092Z,30.48
2022-08-10T06:28:54.073Z,30.71
2022-08-10T06:31:35.774Z,30.93
2022-08-10T06:34:22.840Z,31.20
2022-08-10T06:36:50.544Z,31.62
2022-08-10T06:39:32.913Z,31.88
2022-08-10T06:42:16.184Z,32.07
2022-08-10T06:44:54.462Z,32.48
2022-08-10T06:47:26.719Z,32.86
2022-08-10T06:50:00.042Z,33.16
2022-08-10T06:52:32.907Z,33.30
2022-08-10T06:55:05.337Z,33.47
2022-08-10T06:57:37.359Z,33.63
2022-08-10T07:00:06.194Z,33.99
2022-08-10T07:02:41.468Z,34.20
2022-08-10T07:05:14.359Z,34.39
2022-08-10T07:07:43.859Z,34.54
2022-08-10T07:10:16.334Z,34.74
2022-08-10T07:12:45.018Z,34.68
2022-08-10T07:15:15.292Z,33.47
2022-08-10T07:17:42.490Z,32.46
2022-08-10T07:20:10.834Z,32.53
2022-08-10T07:23:27.155Z,32.68
2022-08-10T07:25:29.259Z,33.52
2022-08-10T07:28:01.533Z,34.14
2022-08-10T07:30:38.317Z,34.60
2022-08-10T07:33:07.374Z,34.92
2022-08-10T07:35:42.280Z,35.28
2022-08-10T07:38:17.336Z,35.59
2022-08-10T07:40:45.350Z,35.95
2022-08-10T07:43:12.975Z,35.90
2022-08-10T07:45:40.355Z,36.19
2022-08-10T07:48:11.939Z,36.03
2022-08-10T07:50:40.892Z,36.14
2022-08-10T07:53:12.954Z,36.50
2022-08-10T07:56:02.266Z,36.97
2022-08-10T07:58:36.989Z,37.41
2022-08-10T08:01:04.079Z,37.72
2022-08-10T08:03:33.067Z,38.03
2022-08-10T08:06:03.221Z,37.42
2022-08-10T08:08:35.423Z,36.91
2022-08-10T08:11:05.608Z,36.75
2022-08-10T08:13:34.051Z,36.93
2022-08-10T08:16:20.482Z,37.18
2022-08-10T08:19:04.071Z,37.43
2022-08-10T08:24:04.825Z,37.31
2022-08-10T08:24:33.555Z,37.00
2022-08-10T08:27:03.175Z,36.77
2022-08-10T08:29:34.473Z,36.08
2022-08-10T08:32:03.839Z,35.97
2022-08-10T08:34:39.014Z,36.20
2022-08-10T08:37:09.095Z,36.28
2022-08-10T08:39:37.383Z,36.74
2022-08-10T08:42:27.731Z,37.30
2022-08-10T08:45:06.894Z,37.86
2022-08-10T08:48:03.640Z,37.83
2022-08-10T08:51:08.624Z,37.18
2022-08-10T08:54:04.079Z,36.57
2022-08-10T08:56:49.558Z,35.91
2022-08-10T08:59:52.262Z,34.76
2022-08-10T09:02:31.301Z,33.62
2022-08-10T09:05:16.667Z,33.24
2022-08-10T09:08:10.578Z,33.67
2022-08-10T09:11:13.730Z,34.68
2022-08-10T09:13:53.432Z,35.90
2022-08-10T09:16:44.668Z,36.93
2022-08-10T09:19:35.347Z,35.99
2022-08-10T09:22:26.180Z,34.64
2022-08-10T09:25:08.223Z,33.11
2022-08-10T09:27:49.343Z,32.08
2022-08-10T09:30:29.584Z,31.22
2022-08-10T09:36:20.691Z,31.59
2022-08-10T09:36:35.438Z,32.28
2022-08-10T09:40:06.691Z,32.19
2022-08-10T09:42:34.804Z,31.60
2022-08-10T09:45:35.858Z,31.79
2022-08-10T09:48:30.621Z,31.84
2022-08-10T09:51:45.953Z,32.41
2022-08-10T09:54:28.491Z,33.65
2022-08-10T09:57:44.444Z,34.55
2022-08-10T10:00:15.601Z,35.64
2022-08-10T10:02:49.374Z,36.62
2022-08-10T10:05:33.084Z,37.56
2022-08-10T10:08:44.726Z,37.58
2022-08-10T10:11:24.002Z,37.41
2022-08-10T10:14:12.769Z,35.53
2022-08-10T10:16:44.253Z,34.89
2022-08-10T10:19:24.688Z,34.99
2022-08-10T10:22:24.167Z,35.64
2022-08-10T10:24:59.698Z,36.23
2022-08-10T10:27:40.707Z,36.83
2022-08-10T10:30:12.427Z,36.54
2022-08-10T10:32:59.345Z,35.87
2022-08-10T10:35:36.995Z,35.08
2022-08-10T10:38:08.970Z,34.20
2022-08-10T10:40:45.630Z,33.72
2022-08-10T10:43:29.683Z,32.95
2022-08-10T10:46:23.452Z,31.38
2022-08-10T10:49:20.866Z,30.12
2022-08-10T10:52:26.519Z,29.31
2022-08-10T10:55:12.428Z,29.80
2022-08-10T10:58:07.342Z,31.13
2022-08-10T11:00:46.345Z,32.65
2022-08-10T11:03:13.184Z,33.22
2022-08-10T11:05:49.494Z,33.28
2022-08-10T11:08:47.152Z,32.56
2022-08-10T11:12:00.225Z,31.27
2022-08-10T11:14:29.104Z,30.11
2022-08-10T11:17:18.041Z,29.30
2022-08-10T11:20:04.166Z,28.58
2022-08-10T11:22:50.356Z,28.08
2022-08-10T11:25:33.009Z,27.75
2022-08-10T11:28:21.723Z,27.51
2022-08-10T11:30:57.467Z,27.31
2022-08-10T11:33:32.851Z,26.83
2022-08-10T11:36:20.930Z,26.08
2022-08-10T11:39:14.910Z,25.54
2022-08-10T11:42:10.196Z,25.21
2022-08-10T11:44:40.556Z,25.04
2022-08-10T11:47:34.477Z,24.89
2022-08-10T11:50:16.889Z,25.32
2022-08-10T11:53:02.252Z,25.62
2022-08-10T11:55:32.825Z,25.23
2022-08-10T11:58:29.975Z,24.66
2022-08-10T12:01:04.126Z,24.31
2022-08-10T12:03:38.093Z,24.32
2022-08-10T12:06:12.221Z,24.69
2022-08-10T12:10:04.240Z,25.13
2022-08-10T12:11:29.854Z,26.22
2022-08-10T12:14:20.208Z,26.73
2022-08-10T12:16:51.073Z,27.75
2022-08-10T12:20:01.639Z,28.94
2022-08-10T12:22:47.487Z,30.04
2022-08-10T12:25:56.986Z,30.37
2022-08-10T12:28:29.095Z,30.09
2022-08-10T12:31:13.538Z,29.99
2022-08-10T12:34:02.307Z,30.66
2022-08-10T12:36:39.971Z,31.40
2022-08-10T12:39:15.476Z,32.07
2022-08-10T12:41:50.044Z,32.68
2022-08-10T12:44:42.110Z,32.90
2022-08-10T12:47:27.651Z,33.03
2022-08-10T12:50:31.067Z,33.03
2022-08-10T12:53:28.345Z,32.61
2022-08-10T12:55:56.849Z,32.41
2022-08-10T12:58:59.615Z,32.07
2022-08-10T13:01:16.493Z,31.32
2022-08-10T13:04:20.533Z,30.99
2022-08-10T13:06:46.455Z,30.63
2022-08-10T13:09:14.784Z,30.23
2022-08-10T13:12:35.624Z,29.97
2022-08-10T13:14:58.232Z,29.81
2022-08-10T13:17:39.032Z,29.47
2022-08-10T13:20:30.016Z,28.91
2022-08-10T13:23:01.336Z,28.24
2022-08-10T13:25:36.355Z,27.62
2022-08-10T13:28:34.872Z,26.94
2022-08-10T13:30:56.599Z,26.25
2022-08-10T13:34:41.246Z,25.62
2022-08-10T13:36:15.608Z,25.23
2022-08-10T13:38:45.728Z,25.04
2022-08-10T13:41:12.793Z,24.97
2022-08-10T13:43:50.804Z,24.92
2022-08-10T13:46:22.726Z,24.91
2022-08-10T13:48:54.035Z,24.78
2022-08-10T13:51:54.092Z,24.75
2022-08-10T13:54:14.490Z,24.84
2022-08-10T13:56:50.748Z,24.92
2022-08-10T13:59:19.084Z,24.92
2022-08-10T14:01:50.629Z,24.74
2022-08-10T14:04:18.959Z,24.62
2022-08-10T14:06:55.584Z,24.43
2022-08-10T14:09:31.337Z,24.26
2022-08-10T14:11:59.441Z,24.19
2022-08-10T14:14:29.499Z,24.22
2022-08-10T14:16:58.638Z,24.33
2022-08-10T14:19:29.404Z,24.22
2022-08-10T14:21:57.538Z,24.28
2022-08-10T14:24:29.417Z,24.34
2022-08-10T14:27:18.158Z,24.38
2022-08-10T14:29:53.587Z,24.37
2022-08-10T14:32:24.073Z,24.15
2022-08-10T14:36:14.896Z,24.07
2022-08-10T14:37:47.400Z,24.05
2022-08-10T14:40:17.997Z,24.15
2022-08-10T14:42:56.242Z,24.31
2022-08-10T14:45:24.559Z,24.36
2022-08-10T14:48:03.549Z,24.57
2022-08-10T14:50:33.508Z,24.73
2022-08-10T14:53:09.749Z,24.80
2022-08-10T14:55:58.911Z,24.96
2022-08-10T14:58:31.453Z,25.18
2022-08-10T15:01:00.027Z,25.26
2022-08-10T15:04:00.740Z,25.33
2022-08-10T15:06:30.245Z,25.25
2022-08-10T15:09:19.225Z,25.27
2022-08-10T15:12:14.304Z,25.44
2022-08-10T15:14:45.060Z,25.60
2022-08-10T15:17:23.670Z,25.73
2022-08-10T15:20:02.162Z,25.80
2022-08-10T15:22:37.934Z,25.84
2022-08-10T15:25:17.697Z,25.89
2022-08-10T15:27:54.285Z,25.81
2022-08-10T15:30:31.032Z,25.68
2022-08-10T15:33:57.579Z,25.61
2022-08-10T15:36:35.251Z,25.52
2022-08-10T15:39:16.528Z,25.48
2022-08-10T15:42:02.835Z,25.43
2022-08-10T15:44:44.672Z,25.27
2022-08-10T15:47:23.341Z,25.16
2022-08-10T15:50:22.761Z,24.96
2022-08-10T15:53:15.818Z,24.83
2022-08-10T15:55:59.425Z,24.66
2022-08-10T15:58:40.184Z,24.57
2022-08-10T16:02:13.768Z,24.40
2022-08-10T16:04:19.531Z,24.24
2022-08-10T16:07:09.595Z,24.17
2022-08-10T16:10:23.156Z,24.05
2022-08-10T16:12:42.506Z,23.97
2022-08-10T16:15:15.532Z,23.92
2022-08-10T16:17:56.150Z,23.84
2022-08-10T16:20:54.742Z,23.66
2022-08-10T16:23:43.589Z,23.53
2022-08-10T16:26:17.449Z,23.46
2022-08-10T16:28:57.900Z,23.35
2022-08-10T16:31:27.737Z,23.29
2022-08-10T16:33:58.464Z,23.21
2022-08-10T16:36:54.199Z,23.12
2022-08-10T16:39:58.555Z,23.02
2022-08-10T16:42:29.260Z,22.92
2022-08-10T16:45:05.365Z,22.90
2022-08-10T16:47:44.397Z,22.92
2022-08-10T16:50:15.526Z,22.93
2022-08-10T16:52:44.989Z,22.98
2022-08-10T16:55:24.250Z,23.01
2022-08-10T16:58:08.665Z,23.05
2022-08-10T17:00:36.727Z,23.08
2022-08-10T17:03:22.677Z,23.08
2022-08-10T17:06:03.658Z,23.04
2022-08-10T17:08:48.064Z,22.96
2022-08-10T17:11:17.497Z,22.81
2022-08-10T17:13:44.950Z,22.66
2022-08-10T17:16:14.636Z,22.47
2022-08-10T17:18:46.663Z,22.31
2022-08-10T17:21:20.374Z,22.15
2022-08-10T17:23:51.617Z,21.99
2022-08-10T17:26:35.213Z,21.86
2022-08-10T17:29:17.079Z,21.73
2022-08-10T17:32:01.182Z,21.63
2022-08-10T17:34:33.339Z,21.58
2022-08-10T17:37:04.163Z,21.53
2022-08-10T17:39:41.089Z,21.44
2022-08-10T17:42:09.447Z,21.32
2022-08-10T17:44:39.075Z,21.18
2022-08-10T17:47:10.934Z,21.08
2022-08-10T17:49:39.832Z,20.99
2022-08-10T17:52:10.335Z,20.91
2022-08-10T17:54:44.487Z,20.83
2022-08-10T17:57:18.561Z,20.73
2022-08-10T17:59:47.001Z,20.62
2022-08-10T18:02:20.047Z,20.55
2022-08-10T18:05:09.507Z,20.43
2022-08-10T18:07:40.560Z,20.40
2022-08-10T18:10:10.084Z,20.34
2022-08-10T18:12:49.423Z,20.23
2022-08-10T18:15:19.797Z,20.15
2022-08-10T18:17:51.077Z,20.01
2022-08-10T18:20:28.155Z,19.90
2022-08-10T18:22:57.312Z,19.80
2022-08-10T18:25:30.191Z,19.71
2022-08-10T18:28:04.413Z,19.61
2022-08-10T18:30:45.664Z,19.48
2022-08-10T18:33:14.264Z,19.31
2022-08-10T18:35:43.959Z,19.15
2022-08-10T18:38:13.375Z,19.00
2022-08-10T18:40:42.821Z,18.92
2022-08-10T18:44:06.857Z,18.83
2022-08-10T18:46:00.887Z,18.63
2022-08-10T18:48:37.552Z,18.43
2022-08-10T18:51:06.617Z,18.40
2022-08-10T18:53:37.450Z,18.34
2022-08-10T18:56:22.584Z,18.23
2022-08-10T18:59:35.932Z,18.12
2022-08-10T19:02:08.673Z,17.99
2022-08-10T19:05:00.348Z,17.88
2022-08-10T19:07:45.759Z,17.76
2022-08-10T19:10:37.833Z,17.67
2022-08-10T19:13:17.940Z,17.60
2022-08-10T19:16:03.787Z,17.54
2022-08-10T19:18:34.464Z,17.45
2022-08-10T19:21:27.151Z,17.35
2022-08-10T19:24:15.120Z,17.24
2022-08-10T19:26:57.271Z,17.14
2022-08-10T19:30:10.182Z,17.01
2022-08-10T19:32:11.036Z,16.85
2022-08-10T19:34:37.847Z,16.69
2022-08-10T19:37:05.193Z,16.57
2022-08-10T19:39:50.386Z,16.44
2022-08-10T19:42:30.149Z,16.27
2022-08-10T19:46:00.650Z,16.12
2022-08-10T19:48:09.412Z,15.90
2022-08-10T19:50:56.458Z,15.77
2022-08-10T19:53:35.512Z,15.63
2022-08-10T19:56:33.737Z,15.48
2022-08-10T19:59:07.462Z,15.32
2022-08-10T20:01:56.269Z,15.19
2022-08-10T20:04:35.444Z,15.00
2022-08-10T20:07:14.079Z,14.87
2022-08-10T20:10:00.342Z,14.75
2022-08-10T20:13:08.633Z,14.66
2022-08-10T20:15:42.067Z,14.60
2022-08-10T20:18:23.697Z,14.54
2022-08-10T20:21:12.424Z,14.46
2022-08-10T20:24:05.710Z,14.36
2022-08-10T20:26:40.952Z,14.32
2022-08-10T20:29:58.229Z,14.21
2022-08-10T20:32:18.310Z,14.10
2022-08-10T20:34:50.267Z,14.04
2022-08-10T20:38:02.917Z,14.00
2022-08-10T20:40:29.354Z,13.96
2022-08-10T20:43:03.633Z,13.88
2022-08-10T20:46:04.952Z,13.84
2022-08-10T20:48:48.019Z,13.80
2022-08-10T20:51:21.246Z,13.75
2022-08-10T20:53:52.438Z,13.70
2022-08-10T20:56:42.509Z,13.62
2022-08-10T21:00:04.406Z,13.55
2022-08-10T21:02:48.958Z,13.45
2022-08-10T21:05:40.640Z,13.44
2022-08-10T21:08:27.880Z,13.42
2022-08-10T21:11:28.613Z,13.41
2022-08-10T21:14:27.561Z,13.34
2022-08-10T21:17:17.750Z,13.25
2022-08-10T21:20:08.181Z,13.23
2022-08-10T21:25:42.144Z,13.20
2022-08-10T21:26:16.245Z,13.12
2022-08-10T21:29:01.195Z,13.05
2022-08-10T21:31:41.542Z,13.02
2022-08-10T21:34:20.152Z,12.94
2022-08-10T21:37:08.519Z,12.88
2022-08-10T21:40:06.075Z,12.79
2022-08-10T21:43:20.563Z,12.76
2022-08-10T21:46:09.493Z,12.71
2022-08-10T21:49:01.436Z,12.67
2022-08-10T21:52:07.902Z,12.59
2022-08-10T21:55:56.248Z,12.50
2022-08-10T21:58:55.111Z,12.40
2022-08-10T22:02:08.478Z,12.30
2022-08-10T22:04:53.966Z,12.23
2022-08-10T22:07:40.754Z,12.18
2022-08-10T22:10:30.273Z,12.10
2022-08-10T22:13:21.573Z,12.06
2022-08-10T22:16:13.797Z,12.04
2022-08-10T22:19:03.743Z,11.95
2022-08-10T22:22:20.072Z,11.83
2022-08-10T22:25:34.422Z,11.76
2022-08-10T22:28:20.080Z,11.71
2022-08-10T22:31:32.208Z,11.61
2022-08-10T22:34:33.464Z,11.56
2022-08-10T22:37:42.473Z,11.51
2022-08-10T22:40:37.809Z,11.44
2022-08-10T22:43:36.161Z,11.42
2022-08-10T22:46:30.519Z,11.37
2022-08-10T22:49:00.506Z,11.35
2022-08-10T22:51:36.405Z,11.31
2022-08-10T22:54:52.269Z,11.29
2022-08-10T22:57:38.640Z,11.31
2022-08-10T23:00:15.786Z,11.27
2022-08-10T23:03:10.256Z,11.24
2022-08-10T23:05:42.283Z,11.22
2022-08-10T23:08:30.558Z,11.20
2022-08-10T23:11:06.485Z,11.15
2022-08-10T23:13:37.749Z,11.12
2022-08-10T23:16:32.553Z,11.10
2022-08-10T23:19:09.884Z,11.07
2022-08-10T23:22:07.753Z,11.01
2022-08-10T23:24:43.381Z,11.02
2022-08-10T23:27:37.330Z,11.01
2022-08-10T23:30:11.068Z,10.96
2022-08-10T23:32:47.969Z,10.93
2022-08-10T23:36:29.691Z,10.89
2022-08-10T23:38:06.894Z,10.87
2022-08-10T23:40:36.365Z,10.82
2022-08-10T23:43:05.043Z,10.81
2022-08-10T23:45:53.707Z,10.76
2022-08-10T23:48:30.325Z,10.75
2022-08-10T23:51:01.403Z,10.69
2022-08-10T23:53:31.878Z,10.72
2022-08-10T23:56:25.031Z,10.71
2022-08-10T23:58:57.160Z,10.71
